createdAt,value
2019-01-05T10:19:40.670Z,1.58
2019-01-05T10:22:56.299Z,1.53
2019-01-05T10:26:17.604Z,1.57
2019-01-05T10:29:30.281Z,1.54
2019-01-05T10:33:02.812Z,1.54
2019-01-05T10:36:21.456Z,1.49
2019-01-05T10:39:56.334Z,1.55
2019-01-05T10:43:31.453Z,1.54
2019-01-05T10:46:46.496Z,1.52
2019-01-05T10:50:10.458Z,1.60
2019-01-05T10:53:44.907Z,1.54
2019-01-05T10:57:05.568Z,1.68
2019-01-05T11:00:36.191Z,1.58
2019-01-05T11:04:14.357Z,1.68
2019-01-05T11:07:29.677Z,1.71
2019-01-05T11:11:21.820Z,1.65
2019-01-05T11:14:47.960Z,1.68
2019-01-05T11:18:09.752Z,1.73
2019-01-05T11:21:36.737Z,1.76
2019-01-05T11:25:20.602Z,1.85
2019-01-05T11:28:58.321Z,1.78
2019-01-05T11:32:29.915Z,1.80
2019-01-05T11:36:01.133Z,1.83
2019-01-05T11:39:34.315Z,1.72
2019-01-05T11:42:48.408Z,1.87
2019-01-05T11:46:27.409Z,1.82
2019-01-05T11:50:03.557Z,1.81
2019-01-05T11:53:47.222Z,1.85
2019-01-05T11:57:03.124Z,1.89
2019-01-05T12:00:05.038Z,2.03
2019-01-05T12:03:37.400Z,2.01
2019-01-05T12:07:14.435Z,2.01
2019-01-05T12:10:28.115Z,2.03
2019-01-05T12:14:01.297Z,2.11
2019-01-05T12:17:40.824Z,1.97
2019-01-05T12:21:18.747Z,2.02
2019-01-05T12:25:04.418Z,2.13
2019-01-05T12:28:28.644Z,2.17
2019-01-05T12:31:40.083Z,2.24
2019-01-05T12:35:21.055Z,2.31
2019-01-05T12:38:46.338Z,2.23
2019-01-05T12:42:33.780Z,2.19
2019-01-05T12:46:04.719Z,2.19
2019-01-05T12:49:47.196Z,2.09
2019-01-05T12:53:13.399Z,2.06
2019-01-05T12:56:50.853Z,2.12
2019-01-05T13:00:37.237Z,2.24
2019-01-05T13:04:02.406Z,2.16
2019-01-05T13:07:39.405Z,2.07
2019-01-05T13:10:49.230Z,2.05
2019-01-05T13:14:22.214Z,2.12
2019-01-05T13:18:02.504Z,2.24
2019-01-05T13:21:38.502Z,2.21
2019-01-05T13:24:50.398Z,2.11
2019-01-05T13:28:13.477Z,2.16
2019-01-05T13:31:49.115Z,2.11
2019-01-05T13:35:19.225Z,2.10
2019-01-05T13:38:43.087Z,2.07
2019-01-05T13:42:39.822Z,2.12
2019-01-05T13:46:03.932Z,2.14
2019-01-05T13:49:26.714Z,2.09
2019-01-05T13:52:54.046Z,2.22
2019-01-05T13:55:54.731Z,2.16
2019-01-05T13:58:41.876Z,2.16
2019-01-05T14:01:36.090Z,2.08
2019-01-05T14:04:30.683Z,2.19
2019-01-05T14:07:19.232Z,2.20
2019-01-05T14:10:20.208Z,2.17
2019-01-05T14:13:05.395Z,2.27
2019-01-05T14:15:59.735Z,2.26
2019-01-05T14:18:51.456Z,2.23
2019-01-05T14:21:48.642Z,2.27
2019-01-05T14:24:35.775Z,2.21
2019-01-05T14:27:28.950Z,2.30
2019-01-05T14:30:15.722Z,2.34
2019-01-05T14:33:14.131Z,2.41
2019-01-05T14:35:57.853Z,2.48
2019-01-05T14:38:51.088Z,2.63
2019-01-05T14:41:39.762Z,2.74
2019-01-05T14:44:30.963Z,2.70
2019-01-05T14:47:20.230Z,2.59
2019-01-05T14:50:07.080Z,2.60
2019-01-05T14:53:04.859Z,2.60
2019-01-05T14:55:52.206Z,2.59
2019-01-05T14:58:39.147Z,2.57
2019-01-05T15:01:26.256Z,2.56
2019-01-05T15:04:14.058Z,2.68
2019-01-05T15:07:14.367Z,2.69
2019-01-05T15:10:08.853Z,2.88
2019-01-05T15:12:55.878Z,2.86
2019-01-05T15:15:56.047Z,2.76
2019-01-05T15:18:44.489Z,2.71
2019-01-05T15:21:33.502Z,2.75
2019-01-05T15:24:21.901Z,2.58
2019-01-05T15:27:13.571Z,2.57
2019-01-05T15:30:00.912Z,2.72
2019-01-05T15:32:51.470Z,2.66
2019-01-05T15:35:50.229Z,2.75
2019-01-05T15:38:38.627Z,2.61
2019-01-05T15:41:29.419Z,2.67
2019-01-05T15:44:13.291Z,2.68
2019-01-05T15:47:01.078Z,2.83
2019-01-05T15:49:47.404Z,2.75
2019-01-05T15:52:38.730Z,2.64
2019-01-05T15:55:25.671Z,2.72
2019-01-05T15:58:23.371Z,2.68
2019-01-05T16:01:23.622Z,2.99
2019-01-05T16:04:27.082Z,3.25
2019-01-05T16:07:16.898Z,3.01
2019-01-05T16:10:03.526Z,2.94
2019-01-05T16:13:00.907Z,3.02
2019-01-05T16:15:55.673Z,2.96
2019-01-05T16:19:02.460Z,3.00
2019-01-05T16:21:49.334Z,3.07
2019-01-05T16:24:36.128Z,2.77
2019-01-05T16:27:24.675Z,3.05
2019-01-05T16:30:11.050Z,3.30
2019-01-05T16:32:57.966Z,3.27
2019-01-05T16:35:49.530Z,3.02
2019-01-05T16:38:46.715Z,2.93
2019-01-05T16:41:37.952Z,2.99
2019-01-05T16:44:25.041Z,3.07
2019-01-05T16:47:11.986Z,2.96
2019-01-05T16:49:58.529Z,3.04
2019-01-05T16:52:46.917Z,2.98
2019-01-05T16:55:35.306Z,2.90
2019-01-05T16:58:29.466Z,3.07
2019-01-05T17:01:22.477Z,3.00
2019-01-05T17:04:02.737Z,2.80
2019-01-05T17:06:51.172Z,2.77
2019-01-05T17:09:38.082Z,2.88
2019-01-05T17:12:29.211Z,2.95
2019-01-05T17:15:10.919Z,2.90
2019-01-05T17:17:58.040Z,2.89
2019-01-05T17:20:54.414Z,3.00
2019-01-05T17:23:48.642Z,2.84
2019-01-05T17:26:35.809Z,2.84
2019-01-05T17:29:16.750Z,2.92
2019-01-05T17:31:58.021Z,2.89
2019-01-05T17:34:44.912Z,2.83
2019-01-05T17:37:30.765Z,2.86
2019-01-05T17:40:23.008Z,2.86
2019-01-05T17:43:09.909Z,2.92
2019-01-05T17:45:56.559Z,2.87
2019-01-05T17:48:54.041Z,2.94
2019-01-05T17:51:47.223Z,2.84
2019-01-05T17:54:32.565Z,2.83
2019-01-05T17:57:33.137Z,2.87
2019-01-05T18:00:20.173Z,2.87
2019-01-05T18:03:07.320Z,2.89
2019-01-05T18:05:58.214Z,2.86
2019-01-05T18:09:04.816Z,2.85
2019-01-05T18:11:51.851Z,2.86
2019-01-05T18:14:46.492Z,2.84
2019-01-05T18:17:39.170Z,2.77
2019-01-05T18:20:33.800Z,2.86
2019-01-05T18:23:15.230Z,2.82
2019-01-05T18:26:09.821Z,2.81
2019-01-05T18:28:57.936Z,2.86
2019-01-05T18:31:45.192Z,2.88
2019-01-05T18:34:38.272Z,2.88
2019-01-05T18:37:23.660Z,2.89
2019-01-05T18:40:23.773Z,2.99
2019-01-05T18:43:21.129Z,2.88
2019-01-05T18:46:04.164Z,2.87
2019-01-05T18:48:51.049Z,2.90
2019-01-05T18:51:43.659Z,2.88
2019-01-05T18:54:34.854Z,2.85
2019-01-05T18:57:39.052Z,2.80
2019-01-05T19:00:26.742Z,2.81
2019-01-05T19:03:21.199Z,2.91
2019-01-05T19:06:08.114Z,2.88
2019-01-05T19:08:55.154Z,2.90
2019-01-05T19:11:58.712Z,2.90
2019-01-05T19:14:56.315Z,2.89
2019-01-05T19:17:43.447Z,2.94
2019-01-05T19:20:30.649Z,3.06
2019-01-05T19:23:28.324Z,3.00
2019-01-05T19:26:22.658Z,3.00
2019-01-05T19:29:09.597Z,2.95
2019-01-05T19:31:56.680Z,3.01
2019-01-05T19:34:57.366Z,3.05
2019-01-05T19:37:45.726Z,3.11
2019-01-05T19:40:32.724Z,3.00
2019-01-05T19:43:19.843Z,3.03
2019-01-05T19:46:13.169Z,2.97
2019-01-05T19:49:00.018Z,2.94
2019-01-05T19:51:51.634Z,3.03
2019-01-05T19:54:55.301Z,3.08
2019-01-05T19:57:53.001Z,3.04
2019-01-05T20:00:53.686Z,3.05
2019-01-05T20:03:40.542Z,3.04
2019-01-05T20:06:28.992Z,3.07
2019-01-05T20:09:20.313Z,3.08
2019-01-05T20:12:07.431Z,3.04
2019-01-05T20:14:56.536Z,3.00
2019-01-05T20:17:34.112Z,3.05
2019-01-05T20:20:21.296Z,3.10
2019-01-05T20:23:02.427Z,3.12
2019-01-05T20:25:49.499Z,3.13
2019-01-05T20:28:56.140Z,3.09
2019-01-05T20:31:38.673Z,3.07
2019-01-05T20:34:28.390Z,3.14
2019-01-05T20:37:28.777Z,3.11
2019-01-05T20:40:15.700Z,3.12
2019-01-05T20:43:07.174Z,3.15
2019-01-05T20:45:54.335Z,3.17
2019-01-05T20:48:34.735Z,3.13
2019-01-05T20:51:21.950Z,3.07
2019-01-05T20:54:08.558Z,3.10
2019-01-05T20:57:00.041Z,3.11
2019-01-05T20:59:47.139Z,3.14
2019-01-05T21:02:50.271Z,3.07
2019-01-05T21:05:44.717Z,3.11
2019-01-05T21:08:31.860Z,3.11
2019-01-05T21:11:18.972Z,3.10
2019-01-05T21:14:06.164Z,3.13
2019-01-05T21:16:53.419Z,3.11
2019-01-05T21:19:51.031Z,3.08
2019-01-05T21:22:37.914Z,3.09
2019-01-05T21:25:29.421Z,3.09
2019-01-05T21:28:16.500Z,3.11
2019-01-05T21:30:57.918Z,3.07
2019-01-05T21:33:58.977Z,3.03
2019-01-05T21:36:47.372Z,3.10
2019-01-05T21:39:44.699Z,3.12
2019-01-05T21:42:48.376Z,3.17
2019-01-05T21:45:35.364Z,3.22
2019-01-05T21:48:21.912Z,3.18
2019-01-05T21:51:09.036Z,3.17
2019-01-05T21:59:15.966Z,6.03
2019-01-05T22:01:54.895Z,6.07
2019-01-05T22:04:40.570Z,6.33
2019-01-05T22:07:28.952Z,6.46
2019-01-05T22:10:26.229Z,6.48
2019-01-05T22:13:07.715Z,6.29
2019-01-05T22:16:06.838Z,6.58
2019-01-05T22:19:10.241Z,6.81
2019-01-05T22:22:02.566Z,7.01
2019-01-05T22:24:51.028Z,6.77
2019-01-05T22:27:35.692Z,6.72
2019-01-05T22:30:37.434Z,6.98
2019-01-05T22:33:24.613Z,6.80
2019-01-05T22:36:22.258Z,6.73
2019-01-05T22:39:09.157Z,6.82
2019-01-05T22:41:59.975Z,6.96
2019-01-05T22:44:43.060Z,6.91
2019-01-05T22:47:34.237Z,6.86
2019-01-05T22:50:31.288Z,7.01
2019-01-05T22:53:19.013Z,6.85
2019-01-05T22:56:17.592Z,7.06
2019-01-05T22:59:04.419Z,6.99
2019-01-05T23:01:51.950Z,6.99
2019-01-05T23:04:48.155Z,6.90
2019-01-05T23:07:36.559Z,6.87
2019-01-05T23:10:36.687Z,7.10
2019-01-05T23:13:23.895Z,7.08
2019-01-05T23:16:27.486Z,7.00
2019-01-05T23:19:25.014Z,7.07
2019-01-05T23:22:19.105Z,6.98
2019-01-05T23:25:05.932Z,7.06
2019-01-05T23:27:57.096Z,7.06
2019-01-05T23:30:50.806Z,7.12
2019-01-05T23:33:33.093Z,6.96
2019-01-05T23:36:20.238Z,7.07
2019-01-05T23:39:16.699Z,7.15
2019-01-05T23:42:08.122Z,7.28
2019-01-05T23:45:02.634Z,7.19
2019-01-05T23:47:49.619Z,7.28
2019-01-05T23:50:34.427Z,7.18
2019-01-05T23:53:37.008Z,7.21
2019-01-05T23:56:25.456Z,7.22
2019-01-05T23:59:23.099Z,7.30
